sensor_id;sensor_type;location;lat;lon;timestamp;P1;durP1;ratioP1;P2;durP2;ratioP2
12356;SDS011;6243;51.244;6.774;2023-10-13T00:00:09;9.97;;;7.50;;
12356;SDS011;6243;51.244;6.774;2023-10-13T00:02:36;12.63;;;8.33;;
12356;SDS011;6243;51.244;6.774;2023-10-13T00:05:03;10.30;;;7.63;;
12356;SDS011;6243;51.244;6.774;2023-10-13T00:07:29;8.87;;;7.93;;
12356;SDS011;6243;51.244;6.774;2023-10-13T00:09:55;10.70;;;7.70;;
12356;SDS011;6243;51.244;6.774;2023-10-13T00:12:20;11.57;;;8.07;;
12356;SDS011;6243;51.244;6.774;2023-10-13T00:14:46;9.03;;;7.70;;
12356;SDS011;6243;51.244;6.774;2023-10-13T00:17:11;9.83;;;8.03;;
12356;SDS011;6243;51.244;6.774;2023-10-13T00:19:38;12.07;;;8.67;;
12356;SDS011;6243;51.244;6.774;2023-10-13T00:22:06;14.23;;;8.43;;
12356;SDS011;6243;51.244;6.774;2023-10-13T00:24:32;9.33;;;7.30;;
12356;SDS011;6243;51.244;6.774;2023-10-13T00:26:58;8.70;;;7.80;;
12356;SDS011;6243;51.244;6.774;2023-10-13T00:29:23;8.83;;;7.93;;
12356;SDS011;6243;51.244;6.774;2023-10-13T00:31:49;9.60;;;7.87;;
12356;SDS011;6243;51.244;6.774;2023-10-13T00:34:15;9.93;;;7.03;;
12356;SDS011;6243;51.244;6.774;2023-10-13T00:36:40;7.87;;;6.87;;
12356;SDS011;6243;51.244;6.774;2023-10-13T00:39:08;12.70;;;8.27;;
12356;SDS011;6243;51.244;6.774;2023-10-13T00:41:33;11.57;;;8.63;;
12356;SDS011;6243;51.244;6.774;2023-10-13T00:43:59;12.27;;;7.93;;
12356;SDS011;6243;51.244;6.774;2023-10-13T00:46:25;9.80;;;7.43;;
12356;SDS011;6243;51.244;6.774;2023-10-13T00:48:50;10.07;;;8.43;;
12356;SDS011;6243;51.244;6.774;2023-10-13T00:51:16;10.93;;;8.23;;
12356;SDS011;6243;51.244;6.774;2023-10-13T00:53:42;10.70;;;8.33;;
12356;SDS011;6243;51.244;6.774;2023-10-13T00:56:09;10.20;;;8.43;;
12356;SDS011;6243;51.244;6.774;2023-10-13T00:58:38;10.07;;;8.57;;
12356;SDS011;6243;51.244;6.774;2023-10-13T01:01:04;10.47;;;7.53;;
12356;SDS011;6243;51.244;6.774;2023-10-13T01:03:30;10.43;;;8.23;;
12356;SDS011;6243;51.244;6.774;2023-10-13T01:05:55;8.80;;;7.23;;
12356;SDS011;6243;51.244;6.774;2023-10-13T01:08:31;11.93;;;8.33;;
12356;SDS011;6243;51.244;6.774;2023-10-13T01:10:57;8.93;;;7.73;;
12356;SDS011;6243;51.244;6.774;2023-10-13T01:13:24;8.97;;;8.10;;
12356;SDS011;6243;51.244;6.774;2023-10-13T01:15:50;11.37;;;7.70;;
12356;SDS011;6243;51.244;6.774;2023-10-13T01:18:15;10.33;;;7.53;;
12356;SDS011;6243;51.244;6.774;2023-10-13T01:20:41;14.00;;;8.70;;
12356;SDS011;6243;51.244;6.774;2023-10-13T01:23:09;8.73;;;7.83;;
12356;SDS011;6243;51.244;6.774;2023-10-13T01:25:35;12.50;;;7.50;;
12356;SDS011;6243;51.244;6.774;2023-10-13T01:28:01;13.90;;;7.73;;
12356;SDS011;6243;51.244;6.774;2023-10-13T01:30:28;10.70;;;8.07;;
12356;SDS011;6243;51.244;6.774;2023-10-13T01:32:53;13.80;;;7.97;;
12356;SDS011;6243;51.244;6.774;2023-10-13T01:35:19;12.73;;;7.63;;
12356;SDS011;6243;51.244;6.774;2023-10-13T01:37:45;9.87;;;7.20;;
12356;SDS011;6243;51.244;6.774;2023-10-13T01:40:12;8.77;;;7.77;;
12356;SDS011;6243;51.244;6.774;2023-10-13T01:42:38;12.90;;;8.37;;
12356;SDS011;6243;51.244;6.774;2023-10-13T01:45:04;10.07;;;8.13;;
12356;SDS011;6243;51.244;6.774;2023-10-13T01:47:31;8.47;;;7.53;;
12356;SDS011;6243;51.244;6.774;2023-10-13T01:49:56;9.47;;;7.60;;
12356;SDS011;6243;51.244;6.774;2023-10-13T01:52:22;8.40;;;7.10;;
12356;SDS011;6243;51.244;6.774;2023-10-13T01:54:48;9.67;;;7.87;;
12356;SDS011;6243;51.244;6.774;2023-10-13T01:57:15;9.23;;;7.87;;
12356;SDS011;6243;51.244;6.774;2023-10-13T01:59:41;9.30;;;6.87;;
12356;SDS011;6243;51.244;6.774;2023-10-13T02:02:06;10.47;;;7.53;;
12356;SDS011;6243;51.244;6.774;2023-10-13T02:04:32;8.63;;;7.73;;
12356;SDS011;6243;51.244;6.774;2023-10-13T02:06:58;8.80;;;7.53;;
12356;SDS011;6243;51.244;6.774;2023-10-13T02:09:23;9.90;;;7.90;;
12356;SDS011;6243;51.244;6.774;2023-10-13T02:11:49;10.27;;;8.27;;
12356;SDS011;6243;51.244;6.774;2023-10-13T02:14:16;9.20;;;8.23;;
12356;SDS011;6243;51.244;6.774;2023-10-13T02:16:42;9.90;;;7.80;;
12356;SDS011;6243;51.244;6.774;2023-10-13T02:19:07;8.90;;;7.93;;
12356;SDS011;6243;51.244;6.774;2023-10-13T02:21:33;10.23;;;8.33;;
12356;SDS011;6243;51.244;6.774;2023-10-13T02:24:00;10.57;;;7.93;;
12356;SDS011;6243;51.244;6.774;2023-10-13T02:26:25;10.30;;;8.27;;
12356;SDS011;6243;51.244;6.774;2023-10-13T02:28:51;9.57;;;7.70;;
12356;SDS011;6243;51.244;6.774;2023-10-13T02:31:18;9.83;;;7.97;;
12356;SDS011;6243;51.244;6.774;2023-10-13T02:33:44;9.63;;;7.97;;
12356;SDS011;6243;51.244;6.774;2023-10-13T02:36:09;8.57;;;7.53;;
12356;SDS011;6243;51.244;6.774;2023-10-13T02:38:35;9.53;;;7.83;;
12356;SDS011;6243;51.244;6.774;2023-10-13T02:41:01;8.97;;;7.73;;
12356;SDS011;6243;51.244;6.774;2023-10-13T02:43:27;9.13;;;8.17;;
12356;SDS011;6243;51.244;6.774;2023-10-13T02:45:52;8.60;;;7.70;;
12356;SDS011;6243;51.244;6.774;2023-10-13T02:48:20;11.20;;;8.43;;
12356;SDS011;6243;51.244;6.774;2023-10-13T02:50:45;10.00;;;8.20;;
12356;SDS011;6243;51.244;6.774;2023-10-13T02:53:20;9.77;;;8.37;;
12356;SDS011;6243;51.244;6.774;2023-10-13T02:55:50;14.13;;;9.57;;
12356;SDS011;6243;51.244;6.774;2023-10-13T02:58:16;11.77;;;9.07;;
12356;SDS011;6243;51.244;6.774;2023-10-13T03:00:42;17.13;;;9.70;;
12356;SDS011;6243;51.244;6.774;2023-10-13T03:03:07;10.93;;;8.67;;
12356;SDS011;6243;51.244;6.774;2023-10-13T03:05:35;12.60;;;9.10;;
12356;SDS011;6243;51.244;6.774;2023-10-13T03:08:01;12.17;;;9.90;;
12356;SDS011;6243;51.244;6.774;2023-10-13T03:10:27;11.47;;;9.87;;
12356;SDS011;6243;51.244;6.774;2023-10-13T03:12:52;11.43;;;9.80;;
12356;SDS011;6243;51.244;6.774;2023-10-13T03:15:18;11.10;;;10.00;;
12356;SDS011;6243;51.244;6.774;2023-10-13T03:17:44;10.83;;;9.17;;
12356;SDS011;6243;51.244;6.774;2023-10-13T03:20:10;13.23;;;10.43;;
12356;SDS011;6243;51.244;6.774;2023-10-13T03:22:38;12.53;;;10.27;;
12356;SDS011;6243;51.244;6.774;2023-10-13T03:25:04;11.73;;;10.47;;
12356;SDS011;6243;51.244;6.774;2023-10-13T03:27:30;12.33;;;10.60;;
12356;SDS011;6243;51.244;6.774;2023-10-13T03:29:56;13.43;;;10.30;;
12356;SDS011;6243;51.244;6.774;2023-10-13T03:32:22;15.30;;;10.80;;
12356;SDS011;6243;51.244;6.774;2023-10-13T03:34:47;14.10;;;10.77;;
12356;SDS011;6243;51.244;6.774;2023-10-13T03:37:13;12.27;;;11.03;;
12356;SDS011;6243;51.244;6.774;2023-10-13T03:39:40;13.37;;;10.43;;
12356;SDS011;6243;51.244;6.774;2023-10-13T03:42:06;15.53;;;11.27;;
12356;SDS011;6243;51.244;6.774;2023-10-13T03:44:31;13.17;;;10.80;;
12356;SDS011;6243;51.244;6.774;2023-10-13T03:46:57;14.23;;;10.10;;
12356;SDS011;6243;51.244;6.774;2023-10-13T03:49:23;11.60;;;9.77;;
12356;SDS011;6243;51.244;6.774;2023-10-13T03:51:48;12.17;;;9.57;;
12356;SDS011;6243;51.244;6.774;2023-10-13T03:54:14;11.67;;;10.23;;
12356;SDS011;6243;51.244;6.774;2023-10-13T03:56:42;10.93;;;9.73;;
12356;SDS011;6243;51.244;6.774;2023-10-13T03:59:08;10.70;;;9.27;;
12356;SDS011;6243;51.244;6.774;2023-10-13T04:01:34;13.20;;;10.63;;
12356;SDS011;6243;51.244;6.774;2023-10-13T04:04:00;14.40;;;10.50;;
12356;SDS011;6243;51.244;6.774;2023-10-13T04:06:26;15.57;;;10.37;;
12356;SDS011;6243;51.244;6.774;2023-10-13T04:08:52;11.67;;;10.47;;
12356;SDS011;6243;51.244;6.774;2023-10-13T04:11:17;12.30;;;10.30;;
12356;SDS011;6243;51.244;6.774;2023-10-13T04:13:44;12.33;;;10.33;;
12356;SDS011;6243;51.244;6.774;2023-10-13T04:16:10;12.97;;;10.10;;
12356;SDS011;6243;51.244;6.774;2023-10-13T04:18:36;12.10;;;10.20;;
12356;SDS011;6243;51.244;6.774;2023-10-13T04:21:01;14.00;;;10.40;;
12356;SDS011;6243;51.244;6.774;2023-10-13T04:23:27;11.40;;;9.73;;
12356;SDS011;6243;51.244;6.774;2023-10-13T04:25:53;12.57;;;10.77;;
12356;SDS011;6243;51.244;6.774;2023-10-13T04:28:18;13.00;;;10.80;;
12356;SDS011;6243;51.244;6.774;2023-10-13T04:30:46;11.93;;;9.87;;
12356;SDS011;6243;51.244;6.774;2023-10-13T04:33:13;17.67;;;11.90;;
12356;SDS011;6243;51.244;6.774;2023-10-13T04:35:38;16.20;;;11.07;;
12356;SDS011;6243;51.244;6.774;2023-10-13T04:38:04;17.27;;;12.10;;
12356;SDS011;6243;51.244;6.774;2023-10-13T04:40:29;13.50;;;11.63;;
12356;SDS011;6243;51.244;6.774;2023-10-13T04:42:55;15.47;;;11.73;;
12356;SDS011;6243;51.244;6.774;2023-10-13T04:45:21;15.23;;;11.23;;
12356;SDS011;6243;51.244;6.774;2023-10-13T04:47:48;15.10;;;11.70;;
12356;SDS011;6243;51.244;6.774;2023-10-13T04:50:14;16.63;;;10.77;;
12356;SDS011;6243;51.244;6.774;2023-10-13T04:52:39;13.60;;;10.57;;
12356;SDS011;6243;51.244;6.774;2023-10-13T04:55:05;14.63;;;10.87;;
12356;SDS011;6243;51.244;6.774;2023-10-13T04:57:32;17.77;;;11.20;;
12356;SDS011;6243;51.244;6.774;2023-10-13T04:59:58;12.53;;;11.17;;
12356;SDS011;6243;51.244;6.774;2023-10-13T05:02:24;18.03;;;11.73;;
12356;SDS011;6243;51.244;6.774;2023-10-13T05:04:51;14.03;;;10.57;;
12356;SDS011;6243;51.244;6.774;2023-10-13T05:07:17;13.20;;;10.73;;
12356;SDS011;6243;51.244;6.774;2023-10-13T05:09:43;13.30;;;10.37;;
12356;SDS011;6243;51.244;6.774;2023-10-13T05:12:08;15.60;;;11.83;;
12356;SDS011;6243;51.244;6.774;2023-10-13T05:14:34;12.97;;;10.70;;
12356;SDS011;6243;51.244;6.774;2023-10-13T05:17:00;15.90;;;11.50;;
12356;SDS011;6243;51.244;6.774;2023-10-13T05:19:25;13.03;;;11.20;;
12356;SDS011;6243;51.244;6.774;2023-10-13T05:21:52;13.50;;;10.80;;
12356;SDS011;6243;51.244;6.774;2023-10-13T05:24:18;13.77;;;10.97;;
12356;SDS011;6243;51.244;6.774;2023-10-13T05:26:44;13.57;;;10.70;;
12356;SDS011;6243;51.244;6.774;2023-10-13T05:29:09;15.73;;;11.07;;
12356;SDS011;6243;51.244;6.774;2023-10-13T05:31:35;15.57;;;11.43;;
12356;SDS011;6243;51.244;6.774;2023-10-13T05:34:00;13.67;;;10.80;;
12356;SDS011;6243;51.244;6.774;2023-10-13T05:36:26;14.83;;;10.83;;
12356;SDS011;6243;51.244;6.774;2023-10-13T05:38:53;11.53;;;9.57;;
12356;SDS011;6243;51.244;6.774;2023-10-13T05:41:19;10.77;;;9.30;;
12356;SDS011;6243;51.244;6.774;2023-10-13T05:43:44;11.77;;;9.17;;
12356;SDS011;6243;51.244;6.774;2023-10-13T05:46:10;13.43;;;9.43;;
12356;SDS011;6243;51.244;6.774;2023-10-13T05:48:36;12.17;;;9.20;;
12356;SDS011;6243;51.244;6.774;2023-10-13T05:51:01;10.00;;;8.80;;
12356;SDS011;6243;51.244;6.774;2023-10-13T05:53:27;12.40;;;8.60;;
12356;SDS011;6243;51.244;6.774;2023-10-13T05:55:59;13.00;;;8.10;;
12356;SDS011;6243;51.244;6.774;2023-10-13T05:58:25;11.70;;;8.70;;
12356;SDS011;6243;51.244;6.774;2023-10-13T06:00:51;13.73;;;9.03;;
12356;SDS011;6243;51.244;6.774;2023-10-13T06:03:18;12.70;;;8.87;;
12356;SDS011;6243;51.244;6.774;2023-10-13T06:05:44;12.57;;;8.33;;
12356;SDS011;6243;51.244;6.774;2023-10-13T06:08:09;10.53;;;7.17;;
12356;SDS011;6243;51.244;6.774;2023-10-13T06:10:35;11.97;;;7.30;;
12356;SDS011;6243;51.244;6.774;2023-10-13T06:13:03;12.90;;;7.40;;
12356;SDS011;6243;51.244;6.774;2023-10-13T06:15:28;11.87;;;7.70;;
12356;SDS011;6243;51.244;6.774;2023-10-13T06:17:54;12.10;;;8.60;;
12356;SDS011;6243;51.244;6.774;2023-10-13T06:20:20;13.80;;;8.93;;
12356;SDS011;6243;51.244;6.774;2023-10-13T06:22:47;13.40;;;8.47;;
12356;SDS011;6243;51.244;6.774;2023-10-13T06:25:13;12.93;;;8.00;;
12356;SDS011;6243;51.244;6.774;2023-10-13T06:27:38;12.80;;;7.70;;
12356;SDS011;6243;51.244;6.774;2023-10-13T06:30:06;11.90;;;7.30;;
12356;SDS011;6243;51.244;6.774;2023-10-13T06:32:32;13.90;;;7.17;;
12356;SDS011;6243;51.244;6.774;2023-10-13T06:34:58;12.60;;;8.00;;
12356;SDS011;6243;51.244;6.774;2023-10-13T06:37:24;11.17;;;6.87;;
12356;SDS011;6243;51.244;6.774;2023-10-13T06:39:50;10.53;;;7.57;;
12356;SDS011;6243;51.244;6.774;2023-10-13T06:42:16;10.30;;;7.53;;
12356;SDS011;6243;51.244;6.774;2023-10-13T06:44:42;10.53;;;7.57;;
12356;SDS011;6243;51.244;6.774;2023-10-13T06:47:09;11.03;;;7.13;;
12356;SDS011;6243;51.244;6.774;2023-10-13T06:49:35;13.93;;;7.60;;
12356;SDS011;6243;51.244;6.774;2023-10-13T06:52:00;14.33;;;8.90;;
12356;SDS011;6243;51.244;6.774;2023-10-13T06:54:26;11.83;;;7.90;;
12356;SDS011;6243;51.244;6.774;2023-10-13T06:56:52;14.93;;;8.17;;
12356;SDS011;6243;51.244;6.774;2023-10-13T06:59:17;10.17;;;8.27;;
12356;SDS011;6243;51.244;6.774;2023-10-13T07:01:43;13.40;;;9.13;;
12356;SDS011;6243;51.244;6.774;2023-10-13T07:04:10;16.60;;;9.67;;
12356;SDS011;6243;51.244;6.774;2023-10-13T07:06:35;17.63;;;9.70;;
12356;SDS011;6243;51.244;6.774;2023-10-13T07:09:01;12.03;;;8.87;;
12356;SDS011;6243;51.244;6.774;2023-10-13T07:11:27;16.13;;;10.20;;
12356;SDS011;6243;51.244;6.774;2023-10-13T07:13:53;17.33;;;10.63;;
12356;SDS011;6243;51.244;6.774;2023-10-13T07:16:18;16.03;;;10.33;;
12356;SDS011;6243;51.244;6.774;2023-10-13T07:18:44;15.17;;;9.93;;
12356;SDS011;6243;51.244;6.774;2023-10-13T07:21:11;15.50;;;9.93;;
12356;SDS011;6243;51.244;6.774;2023-10-13T07:23:37;12.33;;;9.53;;
12356;SDS011;6243;51.244;6.774;2023-10-13T07:26:04;13.87;;;10.37;;
12356;SDS011;6243;51.244;6.774;2023-10-13T07:28:30;15.80;;;10.00;;
12356;SDS011;6243;51.244;6.774;2023-10-13T07:30:57;14.50;;;9.77;;
12356;SDS011;6243;51.244;6.774;2023-10-13T07:33:22;13.77;;;10.17;;
12356;SDS011;6243;51.244;6.774;2023-10-13T07:35:58;13.03;;;9.67;;
12356;SDS011;6243;51.244;6.774;2023-10-13T07:38:26;12.00;;;9.00;;
12356;SDS011;6243;51.244;6.774;2023-10-13T07:40:52;13.97;;;10.23;;
12356;SDS011;6243;51.244;6.774;2023-10-13T07:43:18;14.77;;;10.03;;
12356;SDS011;6243;51.244;6.774;2023-10-13T07:45:45;15.67;;;9.77;;
12356;SDS011;6243;51.244;6.774;2023-10-13T07:48:11;13.53;;;10.10;;
12356;SDS011;6243;51.244;6.774;2023-10-13T07:50:36;11.70;;;9.70;;
12356;SDS011;6243;51.244;6.774;2023-10-13T07:53:02;11.77;;;10.07;;
12356;SDS011;6243;51.244;6.774;2023-10-13T07:55:29;12.23;;;8.83;;
12356;SDS011;6243;51.244;6.774;2023-10-13T07:57:55;13.00;;;9.37;;
12356;SDS011;6243;51.244;6.774;2023-10-13T08:00:21;14.93;;;10.47;;
12356;SDS011;6243;51.244;6.774;2023-10-13T08:02:47;13.17;;;8.90;;
12356;SDS011;6243;51.244;6.774;2023-10-13T08:05:20;16.50;;;9.37;;
12356;SDS011;6243;51.244;6.774;2023-10-13T08:07:46;15.77;;;8.97;;
12356;SDS011;6243;51.244;6.774;2023-10-13T08:10:12;16.73;;;8.93;;
12356;SDS011;6243;51.244;6.774;2023-10-13T08:12:39;11.43;;;8.20;;
12356;SDS011;6243;51.244;6.774;2023-10-13T08:15:05;13.13;;;8.20;;
12356;SDS011;6243;51.244;6.774;2023-10-13T08:17:31;15.70;;;7.97;;
12356;SDS011;6243;51.244;6.774;2023-10-13T08:19:57;10.97;;;7.17;;
12356;SDS011;6243;51.244;6.774;2023-10-13T08:22:22;11.43;;;7.60;;
12356;SDS011;6243;51.244;6.774;2023-10-13T08:24:48;14.37;;;7.27;;
12356;SDS011;6243;51.244;6.774;2023-10-13T08:27:15;10.97;;;7.53;;
12356;SDS011;6243;51.244;6.774;2023-10-13T08:29:45;11.70;;;7.13;;
12356;SDS011;6243;51.244;6.774;2023-10-13T08:32:11;12.70;;;7.50;;
12356;SDS011;6243;51.244;6.774;2023-10-13T08:34:37;10.73;;;6.93;;
12356;SDS011;6243;51.244;6.774;2023-10-13T08:37:03;13.43;;;7.17;;
12356;SDS011;6243;51.244;6.774;2023-10-13T08:39:28;12.97;;;7.30;;
12356;SDS011;6243;51.244;6.774;2023-10-13T08:41:54;14.93;;;7.03;;
12356;SDS011;6243;51.244;6.774;2023-10-13T08:44:20;10.63;;;6.27;;
12356;SDS011;6243;51.244;6.774;2023-10-13T08:46:50;11.93;;;6.20;;
12356;SDS011;6243;51.244;6.774;2023-10-13T08:49:16;11.40;;;6.13;;
12356;SDS011;6243;51.244;6.774;2023-10-13T08:51:43;13.97;;;6.27;;
12356;SDS011;6243;51.244;6.774;2023-10-13T08:54:08;13.03;;;6.40;;
12356;SDS011;6243;51.244;6.774;2023-10-13T08:56:36;10.57;;;5.67;;
12356;SDS011;6243;51.244;6.774;2023-10-13T08:59:02;13.77;;;6.30;;
12356;SDS011;6243;51.244;6.774;2023-10-13T09:01:29;11.40;;;6.00;;
12356;SDS011;6243;51.244;6.774;2023-10-13T09:03:56;14.97;;;6.30;;
12356;SDS011;6243;51.244;6.774;2023-10-13T09:06:23;12.87;;;6.33;;
12356;SDS011;6243;51.244;6.774;2023-10-13T09:08:49;8.97;;;6.00;;
12356;SDS011;6243;51.244;6.774;2023-10-13T09:11:14;11.07;;;6.20;;
12356;SDS011;6243;51.244;6.774;2023-10-13T09:13:40;9.03;;;5.67;;
12356;SDS011;6243;51.244;6.774;2023-10-13T09:16:08;11.97;;;6.40;;
12356;SDS011;6243;51.244;6.774;2023-10-13T09:18:37;13.07;;;5.97;;
12356;SDS011;6243;51.244;6.774;2023-10-13T09:21:05;14.50;;;6.27;;
12356;SDS011;6243;51.244;6.774;2023-10-13T09:23:30;11.77;;;6.30;;
12356;SDS011;6243;51.244;6.774;2023-10-13T09:25:56;11.83;;;6.23;;
12356;SDS011;6243;51.244;6.774;2023-10-13T09:28:30;11.07;;;5.70;;
12356;SDS011;6243;51.244;6.774;2023-10-13T09:30:56;12.37;;;6.47;;
12356;SDS011;6243;51.244;6.774;2023-10-13T09:33:22;8.93;;;5.50;;
12356;SDS011;6243;51.244;6.774;2023-10-13T09:35:49;10.87;;;5.90;;
12356;SDS011;6243;51.244;6.774;2023-10-13T09:38:16;11.20;;;5.50;;
12356;SDS011;6243;51.244;6.774;2023-10-13T09:40:42;14.20;;;6.17;;
12356;SDS011;6243;51.244;6.774;2023-10-13T09:43:08;11.50;;;6.40;;
12356;SDS011;6243;51.244;6.774;2023-10-13T09:45:33;10.23;;;6.20;;
12356;SDS011;6243;51.244;6.774;2023-10-13T09:48:01;10.07;;;6.30;;
12356;SDS011;6243;51.244;6.774;2023-10-13T09:50:29;10.27;;;5.87;;
12356;SDS011;6243;51.244;6.774;2023-10-13T09:52:56;12.27;;;6.47;;
12356;SDS011;6243;51.244;6.774;2023-10-13T09:55:26;9.30;;;5.00;;
12356;SDS011;6243;51.244;6.774;2023-10-13T09:57:56;10.00;;;6.83;;
12356;SDS011;6243;51.244;6.774;2023-10-13T10:00:28;11.47;;;5.90;;
12356;SDS011;6243;51.244;6.774;2023-10-13T10:02:57;9.03;;;6.43;;
12356;SDS011;6243;51.244;6.774;2023-10-13T10:05:24;8.47;;;6.17;;
12356;SDS011;6243;51.244;6.774;2023-10-13T10:07:54;9.10;;;5.87;;
12356;SDS011;6243;51.244;6.774;2023-10-13T10:10:20;11.77;;;6.50;;
12356;SDS011;6243;51.244;6.774;2023-10-13T10:12:49;12.53;;;6.37;;
12356;SDS011;6243;51.244;6.774;2023-10-13T10:15:23;11.77;;;6.13;;
12356;SDS011;6243;51.244;6.774;2023-10-13T10:17:53;12.10;;;6.50;;
12356;SDS011;6243;51.244;6.774;2023-10-13T10:20:27;13.73;;;6.77;;
12356;SDS011;6243;51.244;6.774;2023-10-13T10:22:56;12.43;;;6.73;;
12356;SDS011;6243;51.244;6.774;2023-10-13T10:25:27;10.57;;;6.47;;
12356;SDS011;6243;51.244;6.774;2023-10-13T10:27:56;9.30;;;6.00;;
12356;SDS011;6243;51.244;6.774;2023-10-13T10:30:23;10.93;;;6.40;;
12356;SDS011;6243;51.244;6.774;2023-10-13T10:32:53;12.73;;;6.60;;
12356;SDS011;6243;51.244;6.774;2023-10-13T10:35:22;8.80;;;6.20;;
12356;SDS011;6243;51.244;6.774;2023-10-13T10:37:48;11.00;;;6.47;;
12356;SDS011;6243;51.244;6.774;2023-10-13T10:40:15;11.30;;;6.70;;
12356;SDS011;6243;51.244;6.774;2023-10-13T10:42:41;11.87;;;6.53;;
12356;SDS011;6243;51.244;6.774;2023-10-13T10:45:09;8.10;;;6.30;;
12356;SDS011;6243;51.244;6.774;2023-10-13T10:47:35;12.40;;;6.87;;
12356;SDS011;6243;51.244;6.774;2023-10-13T10:50:01;9.47;;;6.17;;
12356;SDS011;6243;51.244;6.774;2023-10-13T10:52:27;9.73;;;6.83;;
12356;SDS011;6243;51.244;6.774;2023-10-13T10:54:59;8.27;;;6.00;;
12356;SDS011;6243;51.244;6.774;2023-10-13T10:57:25;11.07;;;6.53;;
12356;SDS011;6243;51.244;6.774;2023-10-13T10:59:50;12.93;;;6.80;;
12356;SDS011;6243;51.244;6.774;2023-10-13T11:02:17;8.17;;;6.07;;
12356;SDS011;6243;51.244;6.774;2023-10-13T11:04:43;12.20;;;6.53;;
12356;SDS011;6243;51.244;6.774;2023-10-13T11:07:20;8.13;;;5.83;;
12356;SDS011;6243;51.244;6.774;2023-10-13T11:09:46;12.73;;;6.00;;
12356;SDS011;6243;51.244;6.774;2023-10-13T11:12:12;9.80;;;6.33;;
12356;SDS011;6243;51.244;6.774;2023-10-13T11:14:39;8.93;;;6.13;;
12356;SDS011;6243;51.244;6.774;2023-10-13T11:17:04;12.13;;;6.53;;
12356;SDS011;6243;51.244;6.774;2023-10-13T11:19:35;14.50;;;6.53;;
12356;SDS011;6243;51.244;6.774;2023-10-13T11:22:09;15.90;;;6.80;;
12356;SDS011;6243;51.244;6.774;2023-10-13T11:24:39;12.43;;;6.70;;
12356;SDS011;6243;51.244;6.774;2023-10-13T11:27:13;11.53;;;6.27;;
12356;SDS011;6243;51.244;6.774;2023-10-13T11:29:39;9.13;;;5.83;;
12356;SDS011;6243;51.244;6.774;2023-10-13T11:32:05;10.77;;;6.40;;
12356;SDS011;6243;51.244;6.774;2023-10-13T11:34:30;12.87;;;6.30;;
12356;SDS011;6243;51.244;6.774;2023-10-13T11:36:58;12.83;;;6.50;;
12356;SDS011;6243;51.244;6.774;2023-10-13T11:39:24;10.47;;;6.10;;
12356;SDS011;6243;51.244;6.774;2023-10-13T11:41:49;14.47;;;5.70;;
12356;SDS011;6243;51.244;6.774;2023-10-13T11:44:15;9.87;;;5.90;;
12356;SDS011;6243;51.244;6.774;2023-10-13T11:46:40;11.87;;;6.07;;
12356;SDS011;6243;51.244;6.774;2023-10-13T11:49:07;13.50;;;6.00;;
12356;SDS011;6243;51.244;6.774;2023-10-13T11:51:33;13.63;;;6.50;;
12356;SDS011;6243;51.244;6.774;2023-10-13T11:54:00;12.27;;;5.70;;
12356;SDS011;6243;51.244;6.774;2023-10-13T11:56:26;10.90;;;5.40;;
12356;SDS011;6243;51.244;6.774;2023-10-13T11:58:51;14.67;;;5.63;;
12356;SDS011;6243;51.244;6.774;2023-10-13T12:01:17;12.43;;;5.50;;
12356;SDS011;6243;51.244;6.774;2023-10-13T12:03:43;14.90;;;6.17;;
12356;SDS011;6243;51.244;6.774;2023-10-13T12:06:10;15.83;;;5.87;;
12356;SDS011;6243;51.244;6.774;2023-10-13T12:08:35;12.93;;;5.47;;
12356;SDS011;6243;51.244;6.774;2023-10-13T12:11:03;13.73;;;5.57;;
12356;SDS011;6243;51.244;6.774;2023-10-13T12:13:28;15.07;;;5.60;;
12356;SDS011;6243;51.244;6.774;2023-10-13T12:15:54;11.53;;;5.60;;
12356;SDS011;6243;51.244;6.774;2023-10-13T12:18:20;14.20;;;6.10;;
12356;SDS011;6243;51.244;6.774;2023-10-13T12:20:46;11.83;;;6.07;;
12356;SDS011;6243;51.244;6.774;2023-10-13T12:23:12;10.33;;;5.43;;
12356;SDS011;6243;51.244;6.774;2023-10-13T12:25:38;13.13;;;5.43;;
12356;SDS011;6243;51.244;6.774;2023-10-13T12:28:05;13.37;;;5.90;;
12356;SDS011;6243;51.244;6.774;2023-10-13T12:30:31;12.33;;;5.40;;
12356;SDS011;6243;51.244;6.774;2023-10-13T12:32:56;14.93;;;6.27;;
12356;SDS011;6243;51.244;6.774;2023-10-13T12:35:22;14.13;;;5.73;;
12356;SDS011;6243;51.244;6.774;2023-10-13T12:37:48;11.83;;;5.97;;
12356;SDS011;6243;51.244;6.774;2023-10-13T12:40:14;12.40;;;5.70;;
12356;SDS011;6243;51.244;6.774;2023-10-13T12:42:40;12.77;;;5.90;;
12356;SDS011;6243;51.244;6.774;2023-10-13T12:45:07;16.30;;;6.47;;
12356;SDS011;6243;51.244;6.774;2023-10-13T12:47:33;13.10;;;6.30;;
12356;SDS011;6243;51.244;6.774;2023-10-13T12:49:59;15.53;;;6.43;;
12356;SDS011;6243;51.244;6.774;2023-10-13T12:52:24;13.60;;;5.57;;
12356;SDS011;6243;51.244;6.774;2023-10-13T12:54:50;15.30;;;5.97;;
12356;SDS011;6243;51.244;6.774;2023-10-13T12:57:16;16.20;;;5.63;;
12356;SDS011;6243;51.244;6.774;2023-10-13T12:59:41;12.80;;;5.70;;
12356;SDS011;6243;51.244;6.774;2023-10-13T13:02:08;14.50;;;5.37;;
12356;SDS011;6243;51.244;6.774;2023-10-13T13:04:34;12.10;;;5.57;;
12356;SDS011;6243;51.244;6.774;2023-10-13T13:07:00;14.33;;;5.80;;
12356;SDS011;6243;51.244;6.774;2023-10-13T13:09:25;13.63;;;5.90;;
12356;SDS011;6243;51.244;6.774;2023-10-13T13:11:51;13.40;;;6.00;;
12356;SDS011;6243;51.244;6.774;2023-10-13T13:14:17;17.00;;;6.07;;
12356;SDS011;6243;51.244;6.774;2023-10-13T13:16:43;17.47;;;5.70;;
12356;SDS011;6243;51.244;6.774;2023-10-13T13:19:10;14.60;;;5.10;;
12356;SDS011;6243;51.244;6.774;2023-10-13T13:21:36;15.07;;;5.50;;
12356;SDS011;6243;51.244;6.774;2023-10-13T13:24:02;15.60;;;6.00;;
12356;SDS011;6243;51.244;6.774;2023-10-13T13:26:27;13.73;;;5.40;;
12356;SDS011;6243;51.244;6.774;2023-10-13T13:28:53;14.30;;;5.80;;
12356;SDS011;6243;51.244;6.774;2023-10-13T13:31:19;17.67;;;6.17;;
12356;SDS011;6243;51.244;6.774;2023-10-13T13:33:45;13.40;;;5.83;;
12356;SDS011;6243;51.244;6.774;2023-10-13T13:36:12;12.73;;;5.70;;
12356;SDS011;6243;51.244;6.774;2023-10-13T13:38:37;12.40;;;5.70;;
12356;SDS011;6243;51.244;6.774;2023-10-13T13:41:03;13.47;;;5.90;;
12356;SDS011;6243;51.244;6.774;2023-10-13T13:43:29;12.83;;;5.80;;
12356;SDS011;6243;51.244;6.774;2023-10-13T13:45:55;13.40;;;6.13;;
12356;SDS011;6243;51.244;6.774;2023-10-13T13:48:20;15.90;;;5.87;;
12356;SDS011;6243;51.244;6.774;2023-10-13T13:50:46;14.37;;;4.80;;
12356;SDS011;6243;51.244;6.774;2023-10-13T13:53:13;20.57;;;5.87;;
12356;SDS011;6243;51.244;6.774;2023-10-13T13:55:39;14.73;;;6.00;;
12356;SDS011;6243;51.244;6.774;2023-10-13T13:58:04;16.20;;;6.00;;
12356;SDS011;6243;51.244;6.774;2023-10-13T14:00:30;17.40;;;6.20;;
12356;SDS011;6243;51.244;6.774;2023-10-13T14:02:55;16.30;;;6.23;;
12356;SDS011;6243;51.244;6.774;2023-10-13T14:05:21;17.33;;;6.27;;
12356;SDS011;6243;51.244;6.774;2023-10-13T14:07:47;16.20;;;5.17;;
12356;SDS011;6243;51.244;6.774;2023-10-13T14:10:14;16.00;;;6.33;;
12356;SDS011;6243;51.244;6.774;2023-10-13T14:12:40;16.33;;;5.60;;
12356;SDS011;6243;51.244;6.774;2023-10-13T14:15:06;13.43;;;5.00;;
12356;SDS011;6243;51.244;6.774;2023-10-13T14:17:32;12.57;;;5.33;;
12356;SDS011;6243;51.244;6.774;2023-10-13T14:19:58;13.17;;;5.23;;
12356;SDS011;6243;51.244;6.774;2023-10-13T14:22:24;11.87;;;5.47;;
12356;SDS011;6243;51.244;6.774;2023-10-13T14:24:50;16.90;;;5.73;;
12356;SDS011;6243;51.244;6.774;2023-10-13T14:27:17;17.10;;;5.83;;
12356;SDS011;6243;51.244;6.774;2023-10-13T14:29:43;12.40;;;5.10;;
12356;SDS011;6243;51.244;6.774;2023-10-13T14:32:09;11.53;;;5.17;;
12356;SDS011;6243;51.244;6.774;2023-10-13T14:34:35;16.23;;;5.30;;
12356;SDS011;6243;51.244;6.774;2023-10-13T14:37:01;14.87;;;5.93;;
12356;SDS011;6243;51.244;6.774;2023-10-13T14:39:26;16.60;;;5.17;;
12356;SDS011;6243;51.244;6.774;2023-10-13T14:41:52;14.87;;;5.57;;